Time,TemperatureF,DewpointF,PressureIn,WindDirection,WindDirectionDegrees,WindSpeedMPH,WindSpeedGustMPH,Humidity,HourlyPrecipIn,Conditions,Clouds,dailyrainin,SoftwareType,DateUTC
2013-09-02 13:12:00,82.9,61.8,29.91,NNW,338,3.6,3.6,49,0.00,,,0.00,VWS V14.01,2013-09-02 03:12:00,
2013-09-02 13:13:00,82.9,61.8,29.91,NNW,338,3.6,3.6,49,0.00,,,0.00,VWS V14.01,2013-09-02 03:13:00,
2013-09-02 13:14:00,82.6,60.9,29.91,East,90,12.5,12.5,48,0.00,,,0.00,VWS V14.01,2013-09-02 03:14:00,
2013-09-02 13:19:00,82.8,61.7,29.91,SE,135,10.3,10.3,49,0.00,,,0.00,VWS V14.01,2013-09-02 03:19:00,
2013-09-02 13:24:00,83.1,62.0,29.91,East,90,12.3,12.3,49,0.00,,,0.00,VWS V14.01,2013-09-02 03:24:00,
2013-09-02 13:30:00,83.1,62.0,29.91,East,90,4.0,9.0,49,0.00,,,0.00,VWS V14.01,2013-09-02 03:30:00,
2013-09-02 13:35:00,83.3,62.7,29.91,East,90,4.9,4.9,50,0.00,,,0.00,VWS V14.01,2013-09-02 03:35:00,
2013-09-02 13:40:00,83.5,62.3,29.88,East,90,10.7,10.7,49,0.00,,,0.00,VWS V14.01,2013-09-02 03:40:00,
2013-09-02 13:45:00,83.7,63.1,29.88,SE,135,7.8,7.8,50,0.00,,,0.00,VWS V14.01,2013-09-02 03:45:00,
2013-09-02 13:50:00,83.5,63.5,29.88,East,90,8.5,8.5,51,0.00,,,0.00,VWS V14.01,2013-09-02 03:50:00,
2013-09-02 13:55:00,83.5,63.5,29.88,ENE,68,5.6,5.6,51,0.00,,,0.00,VWS V14.01,2013-09-02 03:55:00,
2013-09-02 14:00:00,83.1,63.1,29.88,East,90,5.8,9.8,51,0.00,,,0.00,VWS V14.01,2013-09-02 04:00:00,
2013-09-02 14:01:00,82.8,62.8,29.88,ENE,68,10.7,10.7,51,0.00,,,0.00,VWS V14.01,2013-09-02 04:01:00,
2013-09-02 14:02:00,82.8,62.8,29.88,SE,135,4.0,10.7,51,0.00,,,0.00,VWS V14.01,2013-09-02 04:02:00,
2013-09-02 14:03:00,82.8,62.8,29.88,SE,135,4.0,4.0,51,0.00,,,0.00,VWS V14.01,2013-09-02 04:03:00,
2013-09-02 14:04:00,82.9,63.5,29.88,SE,135,4.0,4.0,52,0.00,,,0.00,VWS V14.01,2013-09-02 04:04:00,
2013-09-02 14:09:00,82.8,62.2,29.88,ENE,68,7.8,7.8,50,0.00,,,0.00,VWS V14.01,2013-09-02 04:09:00,
2013-09-02 14:13:00,82.9,61.8,29.88,ENE,68,7.8,7.8,49,0.00,,,0.00,VWS V14.01,2013-09-02 04:13:00,
2013-09-02 14:18:00,83.1,62.6,29.88,ENE,68,7.8,7.8,50,0.00,,,0.00,VWS V14.01,2013-09-02 04:18:00,
2013-09-02 14:23:00,82.6,60.9,29.88,ESE,112,4.9,4.9,48,0.00,,,0.00,VWS V14.01,2013-09-02 04:23:00,
2013-09-02 14:28:00,82.8,61.7,29.88,ESE,112,9.6,9.6,49,0.00,,,0.00,VWS V14.01,2013-09-02 04:28:00,
2013-09-02 14:33:00,81.7,61.2,29.88,SE,135,12.5,12.5,50,0.00,,,0.00,VWS V14.01,2013-09-02 04:33:00,
2013-09-02 14:38:00,82.2,61.8,29.88,NNE,22,13.6,13.6,50,0.00,,,0.00,VWS V14.01,2013-09-02 04:38:00,
2013-09-02 14:43:00,82.0,61.6,29.88,NNE,22,13.6,13.6,50,0.00,,,0.00,VWS V14.01,2013-09-02 04:43:00,
2013-09-02 14:48:00,81.9,62.0,29.88,NNE,22,13.6,13.6,51,0.00,,,0.00,VWS V14.01,2013-09-02 04:48:00,
2013-09-02 14:53:00,81.7,61.8,29.88,NE,45,6.3,6.3,51,0.00,,,0.00,VWS V14.01,2013-09-02 04:53:00,
2013-09-02 14:58:00,81.3,61.5,29.88,ENE,68,10.3,10.3,51,0.00,,,0.00,VWS V14.01,2013-09-02 04:58:00,
2013-09-02 15:03:00,80.6,60.8,29.88,SSW,202,3.4,3.4,51,0.00,,,0.00,VWS V14.01,2013-09-02 05:03:00,
2013-09-02 15:08:00,80.8,61.0,29.88,ENE,68,4.0,4.0,51,0.00,,,0.00,VWS V14.01,2013-09-02 05:08:00,
2013-09-02 15:13:00,80.8,61.0,29.88,ENE,68,4.0,4.0,51,0.00,,,0.00,VWS V14.01,2013-09-02 05:13:00,
2013-09-02 15:18:00,81.1,60.8,29.88,WSW,248,4.5,4.5,50,0.00,,,0.00,VWS V14.01,2013-09-02 05:18:00,
2013-09-02 15:23:00,81.3,61.5,29.88,WSW,248,4.5,4.5,51,0.00,,,0.00,VWS V14.01,2013-09-02 05:23:00,
2013-09-02 15:29:00,80.8,61.0,29.88,WSW,248,4.5,4.5,51,0.00,,,0.00,VWS V14.01,2013-09-02 05:29:00,
2013-09-02 15:34:00,81.0,61.7,29.88,ESE,112,6.5,6.5,52,0.00,,,0.00,VWS V14.01,2013-09-02 05:34:00,
2013-09-02 15:39:00,80.4,61.2,29.88,ENE,68,3.1,3.1,52,0.00,,,0.00,VWS V14.01,2013-09-02 05:39:00,
2013-09-02 15:44:00,80.8,61.5,29.88,ENE,68,3.1,3.1,52,0.00,,,0.00,VWS V14.01,2013-09-02 05:44:00,
2013-09-02 15:49:00,80.4,61.2,29.88,ESE,112,7.6,7.6,52,0.00,,,0.00,VWS V14.01,2013-09-02 05:49:00,
2013-09-02 15:54:00,80.2,61.6,29.88,NNW,338,4.9,4.9,53,0.00,,,0.00,VWS V14.01,2013-09-02 05:54:00,
2013-09-02 15:59:00,80.2,61.0,29.88,WSW,248,15.4,15.4,52,0.00,,,0.00,VWS V14.01,2013-09-02 05:59:00,
2013-09-02 16:04:00,79.7,61.1,29.88,WSW,248,15.4,15.4,53,0.00,,,0.00,VWS V14.01,2013-09-02 06:04:00,
2013-09-02 16:09:00,79.9,61.2,29.85,NNE,22,3.6,3.6,53,0.00,,,0.00,VWS V14.01,2013-09-02 06:09:00,
2013-09-02 16:14:00,79.7,61.6,29.85,East,90,4.7,4.7,54,0.00,,,0.00,VWS V14.01,2013-09-02 06:14:00,
2013-09-02 16:19:00,79.3,60.7,29.85,NNE,22,6.3,6.3,53,0.00,,,0.00,VWS V14.01,2013-09-02 06:19:00,
2013-09-02 16:24:00,79.5,61.4,29.88,NNE,22,6.3,6.3,54,0.00,,,0.00,VWS V14.01,2013-09-02 06:24:00,
2013-09-02 16:29:00,79.3,61.3,29.88,NNW,338,3.6,3.6,54,0.00,,,0.00,VWS V14.01,2013-09-02 06:29:00,
2013-09-02 16:34:00,79.2,61.1,29.88,East,90,3.8,3.8,54,0.00,,,0.00,VWS V14.01,2013-09-02 06:34:00,
2013-09-02 16:39:00,79.3,61.3,29.88,SSE,158,4.0,4.0,54,0.00,,,0.00,VWS V14.01,2013-09-02 06:39:00,
2013-09-02 16:44:00,79.2,61.1,29.88,SSE,158,4.0,4.0,54,0.00,,,0.00,VWS V14.01,2013-09-02 06:44:00,
2013-09-02 16:49:00,79.0,61.5,29.88,SSE,158,4.0,4.0,55,0.00,,,0.00,VWS V14.01,2013-09-02 06:49:00,
2013-09-02 16:54:00,79.0,60.9,29.88,SSE,158,4.0,4.0,54,0.00,,,0.00,VWS V14.01,2013-09-02 06:54:00,
2013-09-02 16:59:00,78.6,61.1,29.88,SSE,158,3.1,3.1,55,0.00,,,0.00,VWS V14.01,2013-09-02 06:59:00,
2013-09-02 17:04:00,78.4,61.0,29.88,West,270,2.0,2.0,55,0.00,,,0.00,VWS V14.01,2013-09-02 07:04:00,
2013-09-02 17:09:00,78.1,61.1,29.88,West,270,2.0,2.0,56,0.00,,,0.00,VWS V14.01,2013-09-02 07:09:00,
2013-09-02 17:14:00,78.1,61.1,29.88,ENE,68,7.4,7.4,56,0.00,,,0.00,VWS V14.01,2013-09-02 07:14:00,
2013-09-02 17:19:00,77.9,61.5,29.88,SSW,202,1.3,7.4,57,0.00,,,0.00,VWS V14.01,2013-09-02 07:19:00,
2013-09-02 17:24:00,77.9,62.0,29.88,SW,225,2.0,2.0,58,0.00,,,0.00,VWS V14.01,2013-09-02 07:24:00,
2013-09-02 17:30:00,77.9,61.5,29.88,SSE,158,2.9,2.9,57,0.00,,,0.00,VWS V14.01,2013-09-02 07:30:00,
2013-09-02 17:35:00,77.5,62.1,29.88,SSE,158,2.9,2.9,59,0.00,,,0.00,VWS V14.01,2013-09-02 07:35:00,
2013-09-02 17:40:00,77.5,63.0,29.88,SSE,158,2.9,2.9,61,0.00,,,0.00,VWS V14.01,2013-09-02 07:40:00,
2013-09-02 17:45:00,77.4,63.3,29.88,SSE,158,2.9,2.9,62,0.00,,,0.00,VWS V14.01,2013-09-02 07:45:00,
2013-09-02 17:50:00,77.4,63.3,29.88,SSE,158,2.9,2.9,62,0.00,,,0.00,VWS V14.01,2013-09-02 07:50:00,
2013-09-02 17:55:00,77.2,63.6,29.88,ESE,112,2.7,2.7,63,0.00,,,0.00,VWS V14.01,2013-09-02 07:55:00,
2013-09-02 18:00:00,77.0,63.5,29.88,East,90,3.4,3.4,63,0.00,,,0.00,VWS V14.01,2013-09-02 08:00:00,
2013-09-02 18:05:00,76.8,63.7,29.88,ENE,68,0.0,0.0,64,0.00,,,0.00,VWS V14.01,2013-09-02 08:05:00,
2013-09-02 18:10:00,76.5,63.8,29.88,NE,45,3.1,3.4,65,0.00,,,0.00,VWS V14.01,2013-09-02 08:10:00,
2013-09-02 18:15:00,76.3,63.7,29.88,NNE,22,0.0,0.0,65,0.00,,,0.00,VWS V14.01,2013-09-02 08:15:00,
2013-09-02 18:20:00,76.3,63.7,29.88,NNE,22,0.0,0.0,65,0.00,,,0.00,VWS V14.01,2013-09-02 08:20:00,
2013-09-02 18:25:00,76.1,63.5,29.88,NNE,22,0.0,0.0,65,0.00,,,0.00,VWS V14.01,2013-09-02 08:25:00,
2013-09-02 18:30:00,76.1,63.5,29.88,East,90,1.3,1.3,65,0.00,,,0.00,VWS V14.01,2013-09-02 08:30:00,
2013-09-02 18:35:00,76.1,63.5,29.88,SE,135,0.0,2.7,65,0.00,,,0.00,VWS V14.01,2013-09-02 08:35:00,
2013-09-02 18:40:00,76.3,63.2,29.91,SE,135,1.1,1.1,64,0.00,,,0.00,VWS V14.01,2013-09-02 08:40:00,
2013-09-02 18:45:00,76.3,63.2,29.91,SE,135,1.1,1.1,64,0.00,,,0.00,VWS V14.01,2013-09-02 08:45:00,
2013-09-02 18:50:00,76.3,63.2,29.91,SE,135,1.1,1.1,64,0.00,,,0.00,VWS V14.01,2013-09-02 08:50:00,
2013-09-02 18:55:00,76.3,63.2,29.91,SE,135,1.1,1.1,64,0.00,,,0.00,VWS V14.01,2013-09-02 08:55:00,
2013-09-02 19:00:00,76.1,63.0,29.91,SE,135,1.1,1.1,64,0.00,,,0.00,VWS V14.01,2013-09-02 09:00:00,
2013-09-02 19:05:00,75.9,62.9,29.91,SE,135,1.1,1.1,64,0.00,,,0.00,VWS V14.01,2013-09-02 09:05:00,
2013-09-02 19:10:00,75.7,62.7,29.91,ESE,112,5.6,5.6,64,0.00,,,0.00,VWS V14.01,2013-09-02 09:10:00,
2013-09-02 19:15:00,75.7,62.7,29.91,South,180,4.0,4.0,64,0.00,,,0.00,VWS V14.01,2013-09-02 09:15:00,
2013-09-02 19:20:00,75.6,62.5,29.91,South,180,4.0,4.0,64,0.00,,,0.00,VWS V14.01,2013-09-02 09:20:00,
2013-09-02 19:26:00,75.2,62.2,29.91,South,180,4.0,4.0,64,0.00,,,0.00,VWS V14.01,2013-09-02 09:26:00,
2013-09-02 19:31:00,75.4,62.4,29.91,ESE,112,3.4,3.4,64,0.00,,,0.00,VWS V14.01,2013-09-02 09:31:00,
2013-09-02 19:36:00,75.2,62.2,29.91,ESE,112,3.4,3.4,64,0.00,,,0.00,VWS V14.01,2013-09-02 09:36:00,
2013-09-02 19:41:00,75.2,62.2,29.91,ESE,112,3.4,3.4,64,0.00,,,0.00,VWS V14.01,2013-09-02 09:41:00,
2013-09-02 19:46:00,75.0,62.0,29.91,ESE,112,2.7,4.7,64,0.00,,,0.00,VWS V14.01,2013-09-02 09:46:00,
2013-09-02 19:51:00,75.0,62.0,29.91,SE,135,4.7,10.7,64,0.00,,,0.00,VWS V14.01,2013-09-02 09:51:00,
2013-09-02 19:56:00,75.0,62.0,29.91,SSW,202,6.5,6.5,64,0.00,,,0.00,VWS V14.01,2013-09-02 09:56:00,
2013-09-02 20:01:00,74.8,61.9,29.91,SSW,202,6.5,6.5,64,0.00,,,0.00,VWS V14.01,2013-09-02 10:01:00,
2013-09-02 20:06:00,74.8,61.9,29.91,South,180,15.4,15.4,64,0.00,,,0.00,VWS V14.01,2013-09-02 10:06:00,
2013-09-02 20:11:00,74.8,61.9,29.91,SSW,202,2.9,2.9,64,0.00,,,0.00,VWS V14.01,2013-09-02 10:11:00,
2013-09-02 20:16:00,74.8,61.9,29.91,SSW,202,2.9,2.9,64,0.00,,,0.00,VWS V14.01,2013-09-02 10:16:00,
2013-09-02 20:21:00,74.7,62.1,29.91,SSW,202,2.9,2.9,65,0.00,,,0.00,VWS V14.01,2013-09-02 10:21:00,
2013-09-02 20:26:00,74.7,62.1,29.91,South,180,8.5,8.5,65,0.00,,,0.00,VWS V14.01,2013-09-02 10:26:00,
2013-09-02 20:31:00,74.7,62.1,29.91,South,180,8.5,8.5,65,0.00,,,0.00,VWS V14.01,2013-09-02 10:31:00,
2013-09-02 20:36:00,74.7,62.1,29.91,South,180,8.5,8.5,65,0.00,,,0.00,VWS V14.01,2013-09-02 10:36:00,
2013-09-02 20:41:00,74.5,62.4,29.91,South,180,8.5,8.5,66,0.00,,,0.00,VWS V14.01,2013-09-02 10:41:00,
2013-09-02 20:46:00,74.7,62.1,29.91,South,180,8.5,8.5,65,0.00,,,0.00,VWS V14.01,2013-09-02 10:46:00,
2013-09-02 20:51:00,74.5,62.0,29.91,SSE,158,8.5,8.5,65,0.00,,,0.00,VWS V14.01,2013-09-02 10:51:00,
2013-09-02 20:56:00,74.5,62.0,29.91,SSE,158,8.5,8.5,65,0.00,,,0.00,VWS V14.01,2013-09-02 10:56:00,
2013-09-02 21:01:00,74.5,62.0,29.91,SSE,158,8.5,8.5,65,0.00,,,0.00,VWS V14.01,2013-09-02 11:01:00,
2013-09-02 21:06:00,74.5,62.0,29.91,SSE,158,8.5,8.5,65,0.00,,,0.00,VWS V14.01,2013-09-02 11:06:00,
2013-09-02 21:11:00,74.1,62.0,29.91,SSE,158,8.5,8.5,66,0.00,,,0.00,VWS V14.01,2013-09-02 11:11:00,
2013-09-02 21:17:00,74.1,62.5,29.91,SSE,158,8.5,8.5,67,0.00,,,0.00,VWS V14.01,2013-09-02 11:17:00,
2013-09-02 21:22:00,74.1,62.5,29.91,SSE,158,6.3,8.5,67,0.00,,,0.00,VWS V14.01,2013-09-02 11:22:00,
2013-09-02 21:27:00,74.1,62.5,29.91,SE,135,7.4,7.4,67,0.00,,,0.00,VWS V14.01,2013-09-02 11:27:00,
2013-09-02 21:32:00,74.1,62.5,29.91,SE,135,7.4,7.4,67,0.00,,,0.00,VWS V14.01,2013-09-02 11:32:00,
2013-09-02 21:37:00,74.1,62.5,29.91,SE,135,7.4,7.4,67,0.00,,,0.00,VWS V14.01,2013-09-02 11:37:00,
2013-09-02 21:42:00,74.1,62.5,29.91,SE,135,7.4,7.4,67,0.00,,,0.00,VWS V14.01,2013-09-02 11:42:00,
2013-09-02 21:47:00,74.1,62.5,29.91,SE,135,7.4,7.4,67,0.00,,,0.00,VWS V14.01,2013-09-02 11:47:00,
2013-09-02 21:52:00,73.9,62.3,29.91,WSW,248,2.0,2.0,67,0.00,,,0.00,VWS V14.01,2013-09-02 11:52:00,
2013-09-02 21:57:00,74.1,62.0,29.91,WSW,248,2.0,2.0,66,0.00,,,0.00,VWS V14.01,2013-09-02 11:57:00,
2013-09-02 22:02:00,73.9,62.3,29.91,WSW,248,2.0,2.0,67,0.00,,,0.00,VWS V14.01,2013-09-02 12:02:00,
2013-09-02 22:07:00,73.9,62.3,29.91,WSW,248,2.0,2.0,67,0.00,,,0.00,VWS V14.01,2013-09-02 12:07:00,
2013-09-02 22:12:00,73.9,62.3,29.91,WSW,248,2.0,2.0,67,0.00,,,0.00,VWS V14.01,2013-09-02 12:12:00,
2013-09-02 22:17:00,73.9,62.3,29.91,WSW,248,2.0,2.0,67,0.00,,,0.00,VWS V14.01,2013-09-02 12:17:00,
2013-09-02 22:22:00,74.1,62.5,29.91,WSW,248,2.0,2.0,67,0.00,,,0.00,VWS V14.01,2013-09-02 12:22:00,
2013-09-02 22:27:00,73.9,62.3,29.91,WSW,248,2.0,2.0,67,0.00,,,0.00,VWS V14.01,2013-09-02 12:27:00,
2013-09-02 22:32:00,73.9,62.3,29.91,WSW,248,2.0,2.0,67,0.00,,,0.00,VWS V14.01,2013-09-02 12:32:00,
2013-09-02 22:37:00,73.9,62.3,29.91,WSW,248,2.2,2.2,67,0.00,,,0.00,VWS V14.01,2013-09-02 12:37:00,
2013-09-02 22:42:00,74.1,62.5,29.91,WSW,248,2.2,2.2,67,0.00,,,0.00,VWS V14.01,2013-09-02 12:42:00,
2013-09-02 22:47:00,74.1,62.5,29.91,WSW,248,2.2,2.2,67,0.00,,,0.00,VWS V14.01,2013-09-02 12:47:00,
2013-09-02 22:52:00,74.1,62.5,29.91,WSW,248,2.2,2.2,67,0.00,,,0.00,VWS V14.01,2013-09-02 12:52:00,
2013-09-02 22:57:00,74.1,62.5,29.91,WSW,248,2.2,2.2,67,0.00,,,0.00,VWS V14.01,2013-09-02 12:57:00,
2013-09-02 23:03:00,74.1,62.5,29.91,WSW,248,2.2,2.2,67,0.00,,,0.00,VWS V14.01,2013-09-02 13:03:00,
2013-09-02 23:08:00,74.1,62.5,29.91,WSW,248,2.2,2.2,67,0.00,,,0.00,VWS V14.01,2013-09-02 13:08:00,
2013-09-02 23:13:00,73.8,63.0,29.91,WSW,248,2.2,2.2,69,0.00,,,0.00,VWS V14.01,2013-09-02 13:13:00,
2013-09-02 23:18:00,73.6,62.4,29.91,WSW,248,2.2,2.2,68,0.00,,,0.00,VWS V14.01,2013-09-02 13:18:00,
2013-09-02 23:23:00,73.6,62.8,29.91,WSW,248,2.2,2.2,69,0.00,,,0.00,VWS V14.01,2013-09-02 13:23:00,
2013-09-02 23:28:00,73.4,62.6,29.91,SSE,158,4.3,4.3,69,0.00,,,0.00,VWS V14.01,2013-09-02 13:28:00,
2013-09-02 23:33:00,73.0,62.7,29.91,SSE,158,4.3,4.3,70,0.00,,,0.00,VWS V14.01,2013-09-02 13:33:00,
2013-09-02 23:38:00,73.0,63.1,29.91,SW,225,5.6,5.6,71,0.00,,,0.00,VWS V14.01,2013-09-02 13:38:00,
2013-09-02 23:43:00,73.0,63.1,29.91,SW,225,5.6,5.6,71,0.00,,,0.00,VWS V14.01,2013-09-02 13:43:00,
2013-09-02 23:48:00,73.0,63.1,29.91,SW,225,5.6,5.6,71,0.00,,,0.00,VWS V14.01,2013-09-02 13:48:00,
2013-09-02 23:53:00,73.0,62.7,29.91,SW,225,5.6,5.6,70,0.00,,,0.00,VWS V14.01,2013-09-02 13:53:00,
2013-09-02 23:58:00,73.0,62.7,29.91,SW,225,5.6,5.6,70,0.00,,,0.00,VWS V14.01,2013-09-02 13:58:00,